sensor_id;sensor_type;location;lat;lon;timestamp;P1;durP1;ratioP1;P2;durP2;ratioP2
37241;SDS011;23135;51.078;12.108;2022-07-29T00:01:26;1.40;;;0.00;;
37241;SDS011;23135;51.078;12.108;2022-07-29T00:03:51;8.32;;;0.30;;
37241;SDS011;23135;51.078;12.108;2022-07-29T00:06:17;1.15;;;0.10;;
37241;SDS011;23135;51.078;12.108;2022-07-29T00:08:42;3.95;;;0.20;;
37241;SDS011;23135;51.078;12.108;2022-07-29T00:11:08;0.75;;;0.38;;
37241;SDS011;23135;51.078;12.108;2022-07-29T00:13:33;1.88;;;0.10;;
37241;SDS011;23135;51.078;12.108;2022-07-29T00:15:59;4.78;;;0.10;;
37241;SDS011;23135;51.078;12.108;2022-07-29T00:18:24;3.70;;;0.10;;
37241;SDS011;23135;51.078;12.108;2022-07-29T00:20:50;3.30;;;0.20;;
37241;SDS011;23135;51.078;12.108;2022-07-29T00:23:15;3.50;;;0.10;;
37241;SDS011;23135;51.078;12.108;2022-07-29T00:25:41;1.10;;;0.10;;
37241;SDS011;23135;51.078;12.108;2022-07-29T00:28:07;2.70;;;0.10;;
37241;SDS011;23135;51.078;12.108;2022-07-29T00:30:32;5.32;;;0.32;;
37241;SDS011;23135;51.078;12.108;2022-07-29T00:32:58;5.85;;;0.17;;
37241;SDS011;23135;51.078;12.108;2022-07-29T00:35:23;5.10;;;0.22;;
37241;SDS011;23135;51.078;12.108;2022-07-29T00:38:07;4.45;;;0.03;;
37241;SDS011;23135;51.078;12.108;2022-07-29T00:40:33;3.20;;;0.20;;
37241;SDS011;23135;51.078;12.108;2022-07-29T00:42:58;3.65;;;0.00;;
37241;SDS011;23135;51.078;12.108;2022-07-29T00:45:24;4.63;;;0.05;;
37241;SDS011;23135;51.078;12.108;2022-07-29T00:47:50;5.20;;;0.55;;
37241;SDS011;23135;51.078;12.108;2022-07-29T00:50:15;9.75;;;0.32;;
37241;SDS011;23135;51.078;12.108;2022-07-29T00:52:42;3.70;;;0.10;;
37241;SDS011;23135;51.078;12.108;2022-07-29T00:55:09;3.47;;;0.17;;
37241;SDS011;23135;51.078;12.108;2022-07-29T00:57:36;7.13;;;0.20;;
37241;SDS011;23135;51.078;12.108;2022-07-29T01:00:04;14.25;;;0.32;;
37241;SDS011;23135;51.078;12.108;2022-07-29T01:02:31;2.40;;;0.20;;
37241;SDS011;23135;51.078;12.108;2022-07-29T01:04:56;8.05;;;0.00;;
37241;SDS011;23135;51.078;12.108;2022-07-29T01:07:23;1.20;;;0.52;;
37241;SDS011;23135;51.078;12.108;2022-07-29T01:09:50;4.30;;;0.25;;
37241;SDS011;23135;51.078;12.108;2022-07-29T01:12:18;4.15;;;0.00;;
37241;SDS011;23135;51.078;12.108;2022-07-29T01:14:47;1.90;;;0.30;;
37241;SDS011;23135;51.078;12.108;2022-07-29T01:22:27;2.95;;;0.00;;
37241;SDS011;23135;51.078;12.108;2022-07-29T01:25:03;4.15;;;0.17;;
37241;SDS011;23135;51.078;12.108;2022-07-29T01:28:08;8.68;;;0.68;;
37241;SDS011;23135;51.078;12.108;2022-07-29T01:30:59;3.50;;;0.08;;
37241;SDS011;23135;51.078;12.108;2022-07-29T01:33:27;3.17;;;0.20;;
37241;SDS011;23135;51.078;12.108;2022-07-29T01:36:14;2.50;;;0.73;;
37241;SDS011;23135;51.078;12.108;2022-07-29T01:38:48;0.95;;;0.22;;
37241;SDS011;23135;51.078;12.108;2022-07-29T01:41:37;4.20;;;0.10;;
37241;SDS011;23135;51.078;12.108;2022-07-29T01:46:41;2.35;;;0.13;;
37241;SDS011;23135;51.078;12.108;2022-07-29T01:49:21;5.85;;;0.88;;
37241;SDS011;23135;51.078;12.108;2022-07-29T01:51:53;4.15;;;0.30;;
37241;SDS011;23135;51.078;12.108;2022-07-29T01:57:11;5.30;;;0.47;;
37241;SDS011;23135;51.078;12.108;2022-07-29T01:59:40;17.48;;;0.70;;
37241;SDS011;23135;51.078;12.108;2022-07-29T02:02:08;12.32;;;1.38;;
37241;SDS011;23135;51.078;12.108;2022-07-29T02:04:36;6.78;;;0.20;;
37241;SDS011;23135;51.078;12.108;2022-07-29T02:07:03;10.73;;;0.40;;
37241;SDS011;23135;51.078;12.108;2022-07-29T02:09:31;3.22;;;0.65;;
37241;SDS011;23135;51.078;12.108;2022-07-29T02:11:59;9.82;;;0.40;;
37241;SDS011;23135;51.078;12.108;2022-07-29T02:14:28;10.10;;;0.30;;
37241;SDS011;23135;51.078;12.108;2022-07-29T02:16:58;10.55;;;1.05;;
37241;SDS011;23135;51.078;12.108;2022-07-29T02:19:26;6.80;;;0.47;;
37241;SDS011;23135;51.078;12.108;2022-07-29T02:21:54;10.00;;;0.35;;
37241;SDS011;23135;51.078;12.108;2022-07-29T02:24:22;10.20;;;0.40;;
37241;SDS011;23135;51.078;12.108;2022-07-29T02:26:49;2.13;;;0.28;;
37241;SDS011;23135;51.078;12.108;2022-07-29T02:29:16;5.63;;;0.30;;
37241;SDS011;23135;51.078;12.108;2022-07-29T02:31:46;5.10;;;0.10;;
37241;SDS011;23135;51.078;12.108;2022-07-29T02:34:14;12.23;;;0.32;;
37241;SDS011;23135;51.078;12.108;2022-07-29T02:36:42;5.60;;;0.65;;
37241;SDS011;23135;51.078;12.108;2022-07-29T02:39:09;13.82;;;0.80;;
37241;SDS011;23135;51.078;12.108;2022-07-29T02:41:41;11.98;;;0.43;;
37241;SDS011;23135;51.078;12.108;2022-07-29T02:44:13;3.05;;;0.32;;
37241;SDS011;23135;51.078;12.108;2022-07-29T02:49:38;5.97;;;0.93;;
37241;SDS011;23135;51.078;12.108;2022-07-29T02:52:16;8.70;;;0.45;;
37241;SDS011;23135;51.078;12.108;2022-07-29T02:54:54;18.55;;;0.65;;
37241;SDS011;23135;51.078;12.108;2022-07-29T02:57:37;9.98;;;0.32;;
37241;SDS011;23135;51.078;12.108;2022-07-29T03:00:08;18.33;;;0.70;;
37241;SDS011;23135;51.078;12.108;2022-07-29T03:02:36;4.07;;;0.40;;
37241;SDS011;23135;51.078;12.108;2022-07-29T03:05:06;15.93;;;2.45;;
37241;SDS011;23135;51.078;12.108;2022-07-29T03:07:34;9.13;;;1.10;;
37241;SDS011;23135;51.078;12.108;2022-07-29T03:10:01;3.58;;;0.20;;
37241;SDS011;23135;51.078;12.108;2022-07-29T03:12:28;5.10;;;0.22;;
37241;SDS011;23135;51.078;12.108;2022-07-29T03:14:54;4.53;;;0.25;;
37241;SDS011;23135;51.078;12.108;2022-07-29T03:17:21;6.32;;;0.25;;
37241;SDS011;23135;51.078;12.108;2022-07-29T03:19:47;8.20;;;0.43;;
37241;SDS011;23135;51.078;12.108;2022-07-29T03:22:13;15.73;;;0.60;;
37241;SDS011;23135;51.078;12.108;2022-07-29T03:24:39;4.93;;;0.08;;
37241;SDS011;23135;51.078;12.108;2022-07-29T03:27:05;1.55;;;0.20;;
37241;SDS011;23135;51.078;12.108;2022-07-29T03:29:30;6.07;;;0.28;;
37241;SDS011;23135;51.078;12.108;2022-07-29T03:31:57;8.45;;;1.10;;
37241;SDS011;23135;51.078;12.108;2022-07-29T03:34:22;3.53;;;0.30;;
37241;SDS011;23135;51.078;12.108;2022-07-29T03:36:48;3.75;;;0.10;;
37241;SDS011;23135;51.078;12.108;2022-07-29T03:39:15;8.75;;;0.20;;
37241;SDS011;23135;51.078;12.108;2022-07-29T03:41:46;7.93;;;0.90;;
37241;SDS011;23135;51.078;12.108;2022-07-29T03:44:14;6.72;;;0.40;;
37241;SDS011;23135;51.078;12.108;2022-07-29T03:46:43;4.85;;;0.10;;
37241;SDS011;23135;51.078;12.108;2022-07-29T03:49:09;0.65;;;0.20;;
37241;SDS011;23135;51.078;12.108;2022-07-29T03:51:36;1.73;;;0.10;;
37241;SDS011;23135;51.078;12.108;2022-07-29T03:54:02;8.30;;;0.60;;
37241;SDS011;23135;51.078;12.108;2022-07-29T03:56:29;5.68;;;0.35;;
37241;SDS011;23135;51.078;12.108;2022-07-29T03:58:57;6.40;;;0.35;;
37241;SDS011;23135;51.078;12.108;2022-07-29T04:01:23;4.43;;;0.10;;
37241;SDS011;23135;51.078;12.108;2022-07-29T04:03:50;7.70;;;0.40;;
37241;SDS011;23135;51.078;12.108;2022-07-29T04:06:16;4.95;;;0.10;;
37241;SDS011;23135;51.078;12.108;2022-07-29T04:08:42;7.88;;;0.55;;
37241;SDS011;23135;51.078;12.108;2022-07-29T04:11:07;3.35;;;1.25;;
37241;SDS011;23135;51.078;12.108;2022-07-29T04:13:33;1.63;;;0.10;;
37241;SDS011;23135;51.078;12.108;2022-07-29T04:15:58;5.18;;;0.90;;
37241;SDS011;23135;51.078;12.108;2022-07-29T04:18:24;6.82;;;0.65;;
37241;SDS011;23135;51.078;12.108;2022-07-29T04:20:50;7.03;;;0.30;;
37241;SDS011;23135;51.078;12.108;2022-07-29T04:23:16;2.70;;;0.20;;
37241;SDS011;23135;51.078;12.108;2022-07-29T04:25:42;3.33;;;0.15;;
37241;SDS011;23135;51.078;12.108;2022-07-29T04:28:08;2.97;;;0.15;;
37241;SDS011;23135;51.078;12.108;2022-07-29T04:30:36;6.70;;;0.25;;
37241;SDS011;23135;51.078;12.108;2022-07-29T04:33:04;6.25;;;0.30;;
37241;SDS011;23135;51.078;12.108;2022-07-29T04:35:31;3.40;;;0.25;;
37241;SDS011;23135;51.078;12.108;2022-07-29T04:38:00;1.95;;;0.40;;
37241;SDS011;23135;51.078;12.108;2022-07-29T04:40:26;3.47;;;0.25;;
37241;SDS011;23135;51.078;12.108;2022-07-29T04:42:52;2.50;;;0.22;;
37241;SDS011;23135;51.078;12.108;2022-07-29T04:45:18;2.78;;;0.22;;
37241;SDS011;23135;51.078;12.108;2022-07-29T04:47:43;0.85;;;0.65;;
37241;SDS011;23135;51.078;12.108;2022-07-29T04:50:09;7.10;;;0.30;;
37241;SDS011;23135;51.078;12.108;2022-07-29T04:52:35;4.55;;;0.45;;
37241;SDS011;23135;51.078;12.108;2022-07-29T04:55:01;7.95;;;0.47;;
37241;SDS011;23135;51.078;12.108;2022-07-29T04:57:28;6.05;;;0.28;;
37241;SDS011;23135;51.078;12.108;2022-07-29T04:59:53;2.85;;;0.40;;
37241;SDS011;23135;51.078;12.108;2022-07-29T05:02:19;7.15;;;0.40;;
37241;SDS011;23135;51.078;12.108;2022-07-29T05:04:44;2.83;;;0.10;;
37241;SDS011;23135;51.078;12.108;2022-07-29T05:07:10;2.28;;;0.50;;
37241;SDS011;23135;51.078;12.108;2022-07-29T05:09:36;4.53;;;0.30;;
37241;SDS011;23135;51.078;12.108;2022-07-29T05:12:01;4.10;;;0.20;;
37241;SDS011;23135;51.078;12.108;2022-07-29T05:14:27;5.25;;;0.10;;
37241;SDS011;23135;51.078;12.108;2022-07-29T05:16:52;6.15;;;0.68;;
37241;SDS011;23135;51.078;12.108;2022-07-29T05:19:21;2.88;;;0.22;;
37241;SDS011;23135;51.078;12.108;2022-07-29T05:21:47;3.67;;;0.55;;
37241;SDS011;23135;51.078;12.108;2022-07-29T05:24:12;3.90;;;0.63;;
37241;SDS011;23135;51.078;12.108;2022-07-29T05:26:38;5.20;;;0.52;;
37241;SDS011;23135;51.078;12.108;2022-07-29T05:29:04;2.60;;;0.30;;
37241;SDS011;23135;51.078;12.108;2022-07-29T05:31:30;6.40;;;1.00;;
37241;SDS011;23135;51.078;12.108;2022-07-29T05:33:55;5.05;;;0.63;;
37241;SDS011;23135;51.078;12.108;2022-07-29T05:36:21;9.23;;;0.63;;
37241;SDS011;23135;51.078;12.108;2022-07-29T05:38:46;15.00;;;2.05;;
37241;SDS011;23135;51.078;12.108;2022-07-29T05:41:12;1.60;;;0.20;;
37241;SDS011;23135;51.078;12.108;2022-07-29T05:43:37;7.32;;;0.50;;
37241;SDS011;23135;51.078;12.108;2022-07-29T05:46:03;6.55;;;0.75;;
37241;SDS011;23135;51.078;12.108;2022-07-29T05:48:29;7.72;;;0.63;;
37241;SDS011;23135;51.078;12.108;2022-07-29T05:50:54;7.93;;;0.25;;
37241;SDS011;23135;51.078;12.108;2022-07-29T05:53:20;10.15;;;1.17;;
37241;SDS011;23135;51.078;12.108;2022-07-29T05:55:46;12.48;;;0.30;;
37241;SDS011;23135;51.078;12.108;2022-07-29T05:58:12;8.82;;;0.60;;
37241;SDS011;23135;51.078;12.108;2022-07-29T06:00:38;8.82;;;0.35;;
37241;SDS011;23135;51.078;12.108;2022-07-29T06:03:03;12.93;;;0.40;;
37241;SDS011;23135;51.078;12.108;2022-07-29T06:05:29;10.13;;;0.55;;
37241;SDS011;23135;51.078;12.108;2022-07-29T06:07:54;12.85;;;0.47;;
37241;SDS011;23135;51.078;12.108;2022-07-29T06:10:20;19.83;;;1.17;;
37241;SDS011;23135;51.078;12.108;2022-07-29T06:12:46;8.50;;;0.57;;
37241;SDS011;23135;51.078;12.108;2022-07-29T06:15:11;12.55;;;1.27;;
37241;SDS011;23135;51.078;12.108;2022-07-29T06:17:37;16.27;;;0.55;;
37241;SDS011;23135;51.078;12.108;2022-07-29T06:20:03;13.63;;;0.88;;
37241;SDS011;23135;51.078;12.108;2022-07-29T06:22:28;25.90;;;0.80;;
37241;SDS011;23135;51.078;12.108;2022-07-29T06:24:54;12.95;;;0.60;;
37241;SDS011;23135;51.078;12.108;2022-07-29T06:27:20;18.15;;;1.02;;
37241;SDS011;23135;51.078;12.108;2022-07-29T06:29:45;15.52;;;1.67;;
37241;SDS011;23135;51.078;12.108;2022-07-29T06:32:11;15.02;;;0.75;;
37241;SDS011;23135;51.078;12.108;2022-07-29T06:34:36;13.50;;;1.30;;
37241;SDS011;23135;51.078;12.108;2022-07-29T06:37:06;9.80;;;1.92;;
37241;SDS011;23135;51.078;12.108;2022-07-29T06:39:33;15.48;;;0.70;;
37241;SDS011;23135;51.078;12.108;2022-07-29T06:42:03;9.80;;;0.20;;
37241;SDS011;23135;51.078;12.108;2022-07-29T06:44:30;11.15;;;0.75;;
37241;SDS011;23135;51.078;12.108;2022-07-29T06:46:58;12.05;;;1.08;;
37241;SDS011;23135;51.078;12.108;2022-07-29T06:49:23;11.38;;;1.23;;
37241;SDS011;23135;51.078;12.108;2022-07-29T06:51:50;9.25;;;1.27;;
37241;SDS011;23135;51.078;12.108;2022-07-29T06:54:16;5.47;;;0.98;;
37241;SDS011;23135;51.078;12.108;2022-07-29T06:56:42;9.55;;;1.33;;
37241;SDS011;23135;51.078;12.108;2022-07-29T06:59:08;16.05;;;1.13;;
37241;SDS011;23135;51.078;12.108;2022-07-29T07:01:35;10.93;;;0.95;;
37241;SDS011;23135;51.078;12.108;2022-07-29T07:04:02;9.25;;;1.15;;
37241;SDS011;23135;51.078;12.108;2022-07-29T07:06:27;11.32;;;1.23;;
37241;SDS011;23135;51.078;12.108;2022-07-29T07:08:53;14.55;;;1.20;;
37241;SDS011;23135;51.078;12.108;2022-07-29T07:11:19;9.98;;;0.80;;
37241;SDS011;23135;51.078;12.108;2022-07-29T07:13:44;14.95;;;1.05;;
37241;SDS011;23135;51.078;12.108;2022-07-29T07:16:10;9.05;;;0.93;;
37241;SDS011;23135;51.078;12.108;2022-07-29T07:18:35;12.20;;;1.83;;
37241;SDS011;23135;51.078;12.108;2022-07-29T07:21:01;7.03;;;1.30;;
37241;SDS011;23135;51.078;12.108;2022-07-29T07:23:26;8.90;;;2.15;;
37241;SDS011;23135;51.078;12.108;2022-07-29T07:25:52;11.38;;;2.20;;
37241;SDS011;23135;51.078;12.108;2022-07-29T07:28:18;11.30;;;2.72;;
37241;SDS011;23135;51.078;12.108;2022-07-29T07:30:44;10.05;;;2.35;;
37241;SDS011;23135;51.078;12.108;2022-07-29T07:33:10;9.02;;;2.35;;
37241;SDS011;23135;51.078;12.108;2022-07-29T07:35:35;10.80;;;2.20;;
37241;SDS011;23135;51.078;12.108;2022-07-29T07:38:01;9.43;;;1.58;;
37241;SDS011;23135;51.078;12.108;2022-07-29T07:40:26;8.05;;;2.35;;
37241;SDS011;23135;51.078;12.108;2022-07-29T07:42:52;8.07;;;1.83;;
37241;SDS011;23135;51.078;12.108;2022-07-29T07:45:18;5.50;;;1.70;;
37241;SDS011;23135;51.078;12.108;2022-07-29T07:47:43;10.55;;;1.42;;
37241;SDS011;23135;51.078;12.108;2022-07-29T07:50:09;4.13;;;2.20;;
37241;SDS011;23135;51.078;12.108;2022-07-29T07:52:45;9.95;;;1.70;;
37241;SDS011;23135;51.078;12.108;2022-07-29T07:55:12;7.15;;;1.58;;
37241;SDS011;23135;51.078;12.108;2022-07-29T07:57:38;8.77;;;1.15;;
37241;SDS011;23135;51.078;12.108;2022-07-29T08:00:04;10.73;;;1.50;;
37241;SDS011;23135;51.078;12.108;2022-07-29T08:02:31;8.75;;;1.38;;
37241;SDS011;23135;51.078;12.108;2022-07-29T08:04:56;9.10;;;1.85;;
37241;SDS011;23135;51.078;12.108;2022-07-29T08:07:22;5.88;;;1.30;;
37241;SDS011;23135;51.078;12.108;2022-07-29T08:09:48;5.28;;;1.23;;
37241;SDS011;23135;51.078;12.108;2022-07-29T08:12:13;9.60;;;1.00;;
37241;SDS011;23135;51.078;12.108;2022-07-29T08:14:39;7.68;;;1.02;;
37241;SDS011;23135;51.078;12.108;2022-07-29T08:17:04;8.38;;;1.27;;
37241;SDS011;23135;51.078;12.108;2022-07-29T08:19:30;11.52;;;1.35;;
37241;SDS011;23135;51.078;12.108;2022-07-29T08:21:56;6.57;;;0.63;;
37241;SDS011;23135;51.078;12.108;2022-07-29T08:24:21;13.35;;;1.65;;
37241;SDS011;23135;51.078;12.108;2022-07-29T08:27:06;9.32;;;1.75;;
37241;SDS011;23135;51.078;12.108;2022-07-29T08:29:31;11.57;;;1.25;;
37241;SDS011;23135;51.078;12.108;2022-07-29T08:31:57;13.30;;;0.90;;
37241;SDS011;23135;51.078;12.108;2022-07-29T08:34:23;12.32;;;1.45;;
37241;SDS011;23135;51.078;12.108;2022-07-29T08:36:48;8.13;;;1.20;;
37241;SDS011;23135;51.078;12.108;2022-07-29T08:39:14;4.78;;;1.15;;
37241;SDS011;23135;51.078;12.108;2022-07-29T08:41:40;12.38;;;1.70;;
37241;SDS011;23135;51.078;12.108;2022-07-29T08:44:05;9.38;;;1.60;;
37241;SDS011;23135;51.078;12.108;2022-07-29T08:46:31;12.90;;;2.03;;
37241;SDS011;23135;51.078;12.108;2022-07-29T08:48:56;6.32;;;1.10;;
37241;SDS011;23135;51.078;12.108;2022-07-29T08:51:22;11.18;;;1.33;;
37241;SDS011;23135;51.078;12.108;2022-07-29T08:53:51;11.50;;;1.30;;
37241;SDS011;23135;51.078;12.108;2022-07-29T08:56:19;9.00;;;1.75;;
37241;SDS011;23135;51.078;12.108;2022-07-29T08:58:46;5.65;;;1.33;;
37241;SDS011;23135;51.078;12.108;2022-07-29T09:01:16;7.35;;;1.65;;
37241;SDS011;23135;51.078;12.108;2022-07-29T09:03:47;11.38;;;1.75;;
37241;SDS011;23135;51.078;12.108;2022-07-29T09:06:14;8.30;;;1.00;;
37241;SDS011;23135;51.078;12.108;2022-07-29T09:08:41;7.80;;;1.40;;
37241;SDS011;23135;51.078;12.108;2022-07-29T09:11:07;4.93;;;1.30;;
37241;SDS011;23135;51.078;12.108;2022-07-29T09:13:33;8.25;;;1.15;;
37241;SDS011;23135;51.078;12.108;2022-07-29T09:15:59;3.65;;;1.42;;
37241;SDS011;23135;51.078;12.108;2022-07-29T09:18:36;4.18;;;1.10;;
37241;SDS011;23135;51.078;12.108;2022-07-29T09:21:04;10.40;;;2.65;;
37241;SDS011;23135;51.078;12.108;2022-07-29T09:23:59;7.13;;;2.03;;
37241;SDS011;23135;51.078;12.108;2022-07-29T09:26:30;11.75;;;1.35;;
37241;SDS011;23135;51.078;12.108;2022-07-29T09:28:57;11.75;;;1.38;;
37241;SDS011;23135;51.078;12.108;2022-07-29T09:31:28;8.98;;;1.20;;
37241;SDS011;23135;51.078;12.108;2022-07-29T09:33:59;4.47;;;1.92;;
37241;SDS011;23135;51.078;12.108;2022-07-29T09:36:25;6.65;;;1.13;;
37241;SDS011;23135;51.078;12.108;2022-07-29T09:39:00;10.82;;;1.83;;
37241;SDS011;23135;51.078;12.108;2022-07-29T09:41:27;10.52;;;1.80;;
37241;SDS011;23135;51.078;12.108;2022-07-29T09:43:54;10.80;;;1.80;;
37241;SDS011;23135;51.078;12.108;2022-07-29T09:46:24;11.30;;;1.23;;
37241;SDS011;23135;51.078;12.108;2022-07-29T09:49:10;8.38;;;1.05;;
37241;SDS011;23135;51.078;12.108;2022-07-29T09:51:37;7.03;;;1.10;;
37241;SDS011;23135;51.078;12.108;2022-07-29T09:56:52;13.25;;;1.83;;
37241;SDS011;23135;51.078;12.108;2022-07-29T09:59:19;6.13;;;1.23;;
37241;SDS011;23135;51.078;12.108;2022-07-29T10:01:47;4.97;;;1.52;;
37241;SDS011;23135;51.078;12.108;2022-07-29T10:04:15;11.55;;;1.75;;
37241;SDS011;23135;51.078;12.108;2022-07-29T10:06:59;10.90;;;1.92;;
37241;SDS011;23135;51.078;12.108;2022-07-29T10:09:26;5.15;;;1.42;;
37241;SDS011;23135;51.078;12.108;2022-07-29T10:12:10;6.95;;;2.03;;
37241;SDS011;23135;51.078;12.108;2022-07-29T10:14:41;6.53;;;2.17;;
37241;SDS011;23135;51.078;12.108;2022-07-29T10:17:08;12.00;;;2.60;;
37241;SDS011;23135;51.078;12.108;2022-07-29T10:19:35;9.82;;;2.70;;
37241;SDS011;23135;51.078;12.108;2022-07-29T10:22:04;8.00;;;1.77;;
37241;SDS011;23135;51.078;12.108;2022-07-29T10:24:32;7.30;;;2.25;;
37241;SDS011;23135;51.078;12.108;2022-07-29T10:26:59;12.63;;;2.20;;
37241;SDS011;23135;51.078;12.108;2022-07-29T10:29:27;5.18;;;1.15;;
37241;SDS011;23135;51.078;12.108;2022-07-29T10:43:05;7.75;;;2.67;;
37241;SDS011;23135;51.078;12.108;2022-07-29T10:45:41;10.48;;;2.47;;
37241;SDS011;23135;51.078;12.108;2022-07-29T10:48:07;8.15;;;2.78;;
37241;SDS011;23135;51.078;12.108;2022-07-29T10:50:52;11.27;;;3.05;;
37241;SDS011;23135;51.078;12.108;2022-07-29T10:56:27;11.93;;;2.50;;
37241;SDS011;23135;51.078;12.108;2022-07-29T11:01:45;10.07;;;1.83;;
37241;SDS011;23135;51.078;12.108;2022-07-29T11:04:11;5.10;;;2.00;;
37241;SDS011;23135;51.078;12.108;2022-07-29T11:09:32;7.68;;;1.48;;
37241;SDS011;23135;51.078;12.108;2022-07-29T11:11:58;3.95;;;1.65;;
37241;SDS011;23135;51.078;12.108;2022-07-29T11:17:25;3.85;;;1.52;;
37241;SDS011;23135;51.078;12.108;2022-07-29T11:19:51;5.68;;;1.30;;
37241;SDS011;23135;51.078;12.108;2022-07-29T11:22:35;4.10;;;1.70;;
37241;SDS011;23135;51.078;12.108;2022-07-29T11:25:14;3.88;;;1.05;;
37241;SDS011;23135;51.078;12.108;2022-07-29T11:27:42;5.03;;;1.02;;
37241;SDS011;23135;51.078;12.108;2022-07-29T11:30:09;10.63;;;1.13;;
37241;SDS011;23135;51.078;12.108;2022-07-29T11:32:37;10.45;;;1.60;;
37241;SDS011;23135;51.078;12.108;2022-07-29T11:35:12;4.32;;;1.15;;
37241;SDS011;23135;51.078;12.108;2022-07-29T11:37:40;3.58;;;0.75;;
37241;SDS011;23135;51.078;12.108;2022-07-29T11:45:06;5.43;;;1.40;;
37241;SDS011;23135;51.078;12.108;2022-07-29T11:47:37;5.68;;;1.67;;
37241;SDS011;23135;51.078;12.108;2022-07-29T11:55:03;12.43;;;2.13;;
37241;SDS011;23135;51.078;12.108;2022-07-29T11:57:30;5.15;;;1.70;;
37241;SDS011;23135;51.078;12.108;2022-07-29T11:59:56;7.03;;;2.22;;
37241;SDS011;23135;51.078;12.108;2022-07-29T12:02:23;8.38;;;1.90;;
37241;SDS011;23135;51.078;12.108;2022-07-29T12:04:49;5.68;;;1.63;;
37241;SDS011;23135;51.078;12.108;2022-07-29T12:07:16;8.40;;;1.38;;
37241;SDS011;23135;51.078;12.108;2022-07-29T12:09:51;12.18;;;2.10;;
37241;SDS011;23135;51.078;12.108;2022-07-29T12:12:17;3.70;;;1.35;;
37241;SDS011;23135;51.078;12.108;2022-07-29T12:14:44;7.90;;;2.13;;
37241;SDS011;23135;51.078;12.108;2022-07-29T12:17:30;4.00;;;1.30;;
37241;SDS011;23135;51.078;12.108;2022-07-29T12:19:58;8.02;;;1.48;;
37241;SDS011;23135;51.078;12.108;2022-07-29T12:22:38;1.67;;;0.93;;
37241;SDS011;23135;51.078;12.108;2022-07-29T12:25:07;8.95;;;1.50;;
37241;SDS011;23135;51.078;12.108;2022-07-29T12:27:35;5.53;;;0.88;;
37241;SDS011;23135;51.078;12.108;2022-07-29T12:30:03;7.25;;;1.48;;
37241;SDS011;23135;51.078;12.108;2022-07-29T12:32:34;4.95;;;1.50;;
37241;SDS011;23135;51.078;12.108;2022-07-29T12:35:02;5.25;;;1.35;;
37241;SDS011;23135;51.078;12.108;2022-07-29T12:37:34;6.60;;;0.90;;
37241;SDS011;23135;51.078;12.108;2022-07-29T12:40:02;5.57;;;1.27;;
37241;SDS011;23135;51.078;12.108;2022-07-29T12:42:28;7.07;;;1.17;;
37241;SDS011;23135;51.078;12.108;2022-07-29T12:44:54;4.28;;;1.17;;
37241;SDS011;23135;51.078;12.108;2022-07-29T12:47:22;3.47;;;0.93;;
37241;SDS011;23135;51.078;12.108;2022-07-29T12:49:48;2.28;;;0.88;;
37241;SDS011;23135;51.078;12.108;2022-07-29T12:52:28;8.98;;;1.02;;
37241;SDS011;23135;51.078;12.108;2022-07-29T12:54:55;2.95;;;0.73;;
37241;SDS011;23135;51.078;12.108;2022-07-29T12:57:21;2.92;;;0.68;;
37241;SDS011;23135;51.078;12.108;2022-07-29T13:00:11;4.03;;;1.15;;
37241;SDS011;23135;51.078;12.108;2022-07-29T13:02:37;8.00;;;1.42;;
37241;SDS011;23135;51.078;12.108;2022-07-29T13:05:03;2.97;;;0.88;;
37241;SDS011;23135;51.078;12.108;2022-07-29T13:07:31;4.70;;;1.58;;
37241;SDS011;23135;51.078;12.108;2022-07-29T13:10:14;9.80;;;1.42;;
37241;SDS011;23135;51.078;12.108;2022-07-29T13:15:26;3.08;;;1.60;;
37241;SDS011;23135;51.078;12.108;2022-07-29T13:17:52;6.55;;;1.35;;
37241;SDS011;23135;51.078;12.108;2022-07-29T13:20:18;2.47;;;1.30;;
37241;SDS011;23135;51.078;12.108;2022-07-29T13:22:46;5.50;;;2.42;;
37241;SDS011;23135;51.078;12.108;2022-07-29T13:25:13;3.80;;;2.03;;
37241;SDS011;23135;51.078;12.108;2022-07-29T13:27:38;6.40;;;1.80;;
37241;SDS011;23135;51.078;12.108;2022-07-29T13:30:05;3.45;;;1.55;;
37241;SDS011;23135;51.078;12.108;2022-07-29T13:32:33;3.08;;;0.82;;
37241;SDS011;23135;51.078;12.108;2022-07-29T13:35:00;4.53;;;1.30;;
37241;SDS011;23135;51.078;12.108;2022-07-29T13:37:28;4.15;;;1.90;;
37241;SDS011;23135;51.078;12.108;2022-07-29T13:39:54;6.60;;;1.25;;
37241;SDS011;23135;51.078;12.108;2022-07-29T13:42:21;6.45;;;1.30;;
37241;SDS011;23135;51.078;12.108;2022-07-29T13:44:47;5.97;;;1.45;;
37241;SDS011;23135;51.078;12.108;2022-07-29T13:47:17;2.05;;;1.05;;
37241;SDS011;23135;51.078;12.108;2022-07-29T13:49:43;2.50;;;1.65;;
37241;SDS011;23135;51.078;12.108;2022-07-29T13:52:09;1.48;;;1.00;;
37241;SDS011;23135;51.078;12.108;2022-07-29T13:54:35;4.22;;;1.42;;
37241;SDS011;23135;51.078;12.108;2022-07-29T13:57:02;12.50;;;1.38;;
37241;SDS011;23135;51.078;12.108;2022-07-29T13:59:28;4.13;;;1.10;;
37241;SDS011;23135;51.078;12.108;2022-07-29T14:01:54;5.18;;;1.45;;
37241;SDS011;23135;51.078;12.108;2022-07-29T14:04:20;5.30;;;1.40;;
37241;SDS011;23135;51.078;12.108;2022-07-29T14:06:46;3.00;;;1.17;;
37241;SDS011;23135;51.078;12.108;2022-07-29T14:09:12;6.97;;;1.15;;
37241;SDS011;23135;51.078;12.108;2022-07-29T14:11:37;10.00;;;2.13;;
37241;SDS011;23135;51.078;12.108;2022-07-29T14:14:03;10.93;;;1.40;;
37241;SDS011;23135;51.078;12.108;2022-07-29T14:16:29;2.47;;;1.55;;
37241;SDS011;23135;51.078;12.108;2022-07-29T14:18:55;8.52;;;1.35;;
37241;SDS011;23135;51.078;12.108;2022-07-29T14:21:20;3.90;;;1.02;;
37241;SDS011;23135;51.078;12.108;2022-07-29T14:23:46;6.30;;;1.20;;
37241;SDS011;23135;51.078;12.108;2022-07-29T14:26:12;6.32;;;1.20;;
37241;SDS011;23135;51.078;12.108;2022-07-29T14:28:38;5.38;;;1.83;;
37241;SDS011;23135;51.078;12.108;2022-07-29T14:31:03;1.70;;;1.02;;
37241;SDS011;23135;51.078;12.108;2022-07-29T14:33:29;2.80;;;0.90;;
37241;SDS011;23135;51.078;12.108;2022-07-29T14:35:55;9.00;;;1.00;;
37241;SDS011;23135;51.078;12.108;2022-07-29T14:38:20;3.97;;;0.93;;
37241;SDS011;23135;51.078;12.108;2022-07-29T14:40:46;5.10;;;0.82;;
37241;SDS011;23135;51.078;12.108;2022-07-29T14:43:12;9.02;;;1.20;;
37241;SDS011;23135;51.078;12.108;2022-07-29T14:45:38;3.90;;;1.30;;
37241;SDS011;23135;51.078;12.108;2022-07-29T14:48:04;6.03;;;1.30;;
37241;SDS011;23135;51.078;12.108;2022-07-29T14:50:30;6.50;;;1.77;;
37241;SDS011;23135;51.078;12.108;2022-07-29T14:52:56;5.18;;;2.22;;
37241;SDS011;23135;51.078;12.108;2022-07-29T14:55:21;9.65;;;1.60;;
37241;SDS011;23135;51.078;12.108;2022-07-29T14:57:47;3.55;;;1.17;;
37241;SDS011;23135;51.078;12.108;2022-07-29T15:00:14;16.98;;;1.58;;
37241;SDS011;23135;51.078;12.108;2022-07-29T15:02:41;4.80;;;1.67;;
37241;SDS011;23135;51.078;12.108;2022-07-29T15:05:06;5.35;;;0.98;;
37241;SDS011;23135;51.078;12.108;2022-07-29T15:07:32;8.15;;;2.13;;
37241;SDS011;23135;51.078;12.108;2022-07-29T15:09:58;7.53;;;1.85;;
37241;SDS011;23135;51.078;12.108;2022-07-29T15:12:23;8.88;;;2.60;;
37241;SDS011;23135;51.078;12.108;2022-07-29T15:14:49;8.75;;;1.70;;
37241;SDS011;23135;51.078;12.108;2022-07-29T15:17:14;6.47;;;1.60;;
37241;SDS011;23135;51.078;12.108;2022-07-29T15:19:40;5.82;;;1.48;;
37241;SDS011;23135;51.078;12.108;2022-07-29T15:22:05;5.30;;;0.90;;
37241;SDS011;23135;51.078;12.108;2022-07-29T15:24:31;7.35;;;0.88;;
37241;SDS011;23135;51.078;12.108;2022-07-29T15:26:57;3.03;;;0.90;;